sensor_id;sensor_type;location;lat;lon;timestamp;P1;durP1;ratioP1;P2;durP2;ratioP2
23270;SDS011;11804;51.118;17.058;2023-02-26T00:01:25;6.43;;;2.90;;
23270;SDS011;11804;51.118;17.058;2023-02-26T00:03:55;4.37;;;3.30;;
23270;SDS011;11804;51.118;17.058;2023-02-26T00:09:38;4.30;;;2.77;;
23270;SDS011;11804;51.118;17.058;2023-02-26T00:12:08;10.60;;;3.30;;
23270;SDS011;11804;51.118;17.058;2023-02-26T00:14:38;5.77;;;3.30;;
23270;SDS011;11804;51.118;17.058;2023-02-26T00:17:16;5.70;;;3.53;;
23270;SDS011;11804;51.118;17.058;2023-02-26T00:19:53;5.57;;;3.10;;
23270;SDS011;11804;51.118;17.058;2023-02-26T00:22:21;8.33;;;3.10;;
23270;SDS011;11804;51.118;17.058;2023-02-26T00:24:49;4.53;;;3.07;;
23270;SDS011;11804;51.118;17.058;2023-02-26T00:27:16;6.50;;;3.53;;
23270;SDS011;11804;51.118;17.058;2023-02-26T00:29:45;5.33;;;3.30;;
23270;SDS011;11804;51.118;17.058;2023-02-26T00:32:15;5.40;;;3.60;;
23270;SDS011;11804;51.118;17.058;2023-02-26T00:34:46;5.03;;;3.57;;
23270;SDS011;11804;51.118;17.058;2023-02-26T00:42:43;6.73;;;3.60;;
23270;SDS011;11804;51.118;17.058;2023-02-26T00:45:13;7.70;;;3.40;;
23270;SDS011;11804;51.118;17.058;2023-02-26T00:47:43;5.23;;;3.40;;
23270;SDS011;11804;51.118;17.058;2023-02-26T00:50:27;4.80;;;3.40;;
23270;SDS011;11804;51.118;17.058;2023-02-26T00:55:46;8.77;;;3.60;;
23270;SDS011;11804;51.118;17.058;2023-02-26T00:58:14;5.80;;;3.53;;
23270;SDS011;11804;51.118;17.058;2023-02-26T01:00:41;5.90;;;3.50;;
23270;SDS011;11804;51.118;17.058;2023-02-26T01:03:09;5.23;;;3.13;;
23270;SDS011;11804;51.118;17.058;2023-02-26T01:05:37;5.13;;;3.30;;
23270;SDS011;11804;51.118;17.058;2023-02-26T01:08:14;6.67;;;3.33;;
23270;SDS011;11804;51.118;17.058;2023-02-26T01:10:49;6.70;;;3.53;;
23270;SDS011;11804;51.118;17.058;2023-02-26T01:13:17;5.70;;;3.43;;
23270;SDS011;11804;51.118;17.058;2023-02-26T01:15:49;5.37;;;3.43;;
23270;SDS011;11804;51.118;17.058;2023-02-26T01:18:29;5.53;;;3.93;;
23270;SDS011;11804;51.118;17.058;2023-02-26T01:21:02;6.10;;;3.90;;
23270;SDS011;11804;51.118;17.058;2023-02-26T01:23:32;4.27;;;3.40;;
23270;SDS011;11804;51.118;17.058;2023-02-26T01:26:03;7.20;;;3.33;;
23270;SDS011;11804;51.118;17.058;2023-02-26T01:28:35;6.83;;;3.93;;
23270;SDS011;11804;51.118;17.058;2023-02-26T01:31:04;7.37;;;3.90;;
23270;SDS011;11804;51.118;17.058;2023-02-26T01:33:43;7.37;;;3.80;;
23270;SDS011;11804;51.118;17.058;2023-02-26T01:36:20;6.03;;;3.70;;
23270;SDS011;11804;51.118;17.058;2023-02-26T01:41:35;6.70;;;4.47;;
23270;SDS011;11804;51.118;17.058;2023-02-26T01:49:29;5.67;;;3.87;;
23270;SDS011;11804;51.118;17.058;2023-02-26T01:51:59;6.10;;;3.60;;
23270;SDS011;11804;51.118;17.058;2023-02-26T01:54:31;5.73;;;3.60;;
23270;SDS011;11804;51.118;17.058;2023-02-26T01:57:10;5.90;;;3.50;;
23270;SDS011;11804;51.118;17.058;2023-02-26T01:59:41;6.63;;;3.50;;
23270;SDS011;11804;51.118;17.058;2023-02-26T02:02:12;6.97;;;4.07;;
23270;SDS011;11804;51.118;17.058;2023-02-26T02:04:42;5.43;;;3.57;;
23270;SDS011;11804;51.118;17.058;2023-02-26T02:07:12;5.73;;;3.70;;
23270;SDS011;11804;51.118;17.058;2023-02-26T02:09:40;6.27;;;3.73;;
23270;SDS011;11804;51.118;17.058;2023-02-26T02:17:49;4.63;;;3.50;;
23270;SDS011;11804;51.118;17.058;2023-02-26T02:28:59;7.63;;;3.80;;
23270;SDS011;11804;51.118;17.058;2023-02-26T02:31:30;6.27;;;3.60;;
23270;SDS011;11804;51.118;17.058;2023-02-26T02:34:01;6.33;;;3.90;;
23270;SDS011;11804;51.118;17.058;2023-02-26T02:36:40;5.47;;;3.70;;
23270;SDS011;11804;51.118;17.058;2023-02-26T02:42:07;5.97;;;3.50;;
23270;SDS011;11804;51.118;17.058;2023-02-26T02:44:46;5.20;;;3.20;;
23270;SDS011;11804;51.118;17.058;2023-02-26T02:47:16;5.83;;;3.77;;
23270;SDS011;11804;51.118;17.058;2023-02-26T02:49:47;7.20;;;4.00;;
23270;SDS011;11804;51.118;17.058;2023-02-26T02:52:37;6.23;;;3.53;;
23270;SDS011;11804;51.118;17.058;2023-02-26T02:55:07;7.00;;;3.90;;
23270;SDS011;11804;51.118;17.058;2023-02-26T02:57:37;8.83;;;4.60;;
23270;SDS011;11804;51.118;17.058;2023-02-26T03:00:17;7.47;;;4.30;;
23270;SDS011;11804;51.118;17.058;2023-02-26T03:02:57;6.70;;;4.50;;
23270;SDS011;11804;51.118;17.058;2023-02-26T03:05:33;6.30;;;4.07;;
23270;SDS011;11804;51.118;17.058;2023-02-26T03:08:03;5.13;;;4.00;;
23270;SDS011;11804;51.118;17.058;2023-02-26T03:10:38;5.27;;;3.73;;
23270;SDS011;11804;51.118;17.058;2023-02-26T03:13:06;6.07;;;3.60;;
23270;SDS011;11804;51.118;17.058;2023-02-26T03:15:54;7.40;;;3.60;;
23270;SDS011;11804;51.118;17.058;2023-02-26T03:18:35;5.23;;;3.00;;
23270;SDS011;11804;51.118;17.058;2023-02-26T03:21:07;5.07;;;3.77;;
23270;SDS011;11804;51.118;17.058;2023-02-26T03:24:11;4.10;;;3.17;;
23270;SDS011;11804;51.118;17.058;2023-02-26T03:26:33;5.63;;;3.07;;
23270;SDS011;11804;51.118;17.058;2023-02-26T03:32:02;4.50;;;2.83;;
23270;SDS011;11804;51.118;17.058;2023-02-26T03:35:13;3.47;;;2.80;;
23270;SDS011;11804;51.118;17.058;2023-02-26T03:37:45;4.33;;;2.83;;
23270;SDS011;11804;51.118;17.058;2023-02-26T03:39:49;5.73;;;2.80;;
23270;SDS011;11804;51.118;17.058;2023-02-26T03:42:29;4.13;;;2.77;;
23270;SDS011;11804;51.118;17.058;2023-02-26T03:45:05;4.57;;;2.70;;
23270;SDS011;11804;51.118;17.058;2023-02-26T03:47:37;4.77;;;2.77;;
23270;SDS011;11804;51.118;17.058;2023-02-26T03:50:09;3.77;;;2.80;;
23270;SDS011;11804;51.118;17.058;2023-02-26T03:52:39;5.13;;;3.00;;
23270;SDS011;11804;51.118;17.058;2023-02-26T03:55:10;7.87;;;2.97;;
23270;SDS011;11804;51.118;17.058;2023-02-26T03:57:45;3.73;;;2.60;;
23270;SDS011;11804;51.118;17.058;2023-02-26T04:00:15;6.17;;;2.80;;
23270;SDS011;11804;51.118;17.058;2023-02-26T04:02:54;3.90;;;2.60;;
23270;SDS011;11804;51.118;17.058;2023-02-26T04:05:22;3.83;;;2.53;;
23270;SDS011;11804;51.118;17.058;2023-02-26T04:07:51;4.73;;;2.60;;
23270;SDS011;11804;51.118;17.058;2023-02-26T04:10:20;4.07;;;2.50;;
23270;SDS011;11804;51.118;17.058;2023-02-26T04:12:50;3.13;;;2.30;;
23270;SDS011;11804;51.118;17.058;2023-02-26T04:15:17;4.43;;;2.50;;
23270;SDS011;11804;51.118;17.058;2023-02-26T04:17:45;3.50;;;2.50;;
23270;SDS011;11804;51.118;17.058;2023-02-26T04:20:12;5.67;;;2.73;;
23270;SDS011;11804;51.118;17.058;2023-02-26T04:22:41;6.03;;;2.60;;
23270;SDS011;11804;51.118;17.058;2023-02-26T04:25:08;4.07;;;2.60;;
23270;SDS011;11804;51.118;17.058;2023-02-26T04:27:36;3.47;;;2.63;;
23270;SDS011;11804;51.118;17.058;2023-02-26T04:30:04;3.90;;;3.10;;
23270;SDS011;11804;51.118;17.058;2023-02-26T04:32:33;3.43;;;2.20;;
23270;SDS011;11804;51.118;17.058;2023-02-26T04:35:00;4.03;;;2.63;;
23270;SDS011;11804;51.118;17.058;2023-02-26T04:37:28;4.40;;;2.63;;
23270;SDS011;11804;51.118;17.058;2023-02-26T04:39:56;4.63;;;2.70;;
23270;SDS011;11804;51.118;17.058;2023-02-26T04:42:23;4.43;;;2.90;;
23270;SDS011;11804;51.118;17.058;2023-02-26T04:44:52;3.80;;;3.03;;
23270;SDS011;11804;51.118;17.058;2023-02-26T04:47:19;4.13;;;2.87;;
23270;SDS011;11804;51.118;17.058;2023-02-26T04:49:47;4.67;;;2.97;;
23270;SDS011;11804;51.118;17.058;2023-02-26T04:52:15;4.83;;;2.70;;
23270;SDS011;11804;51.118;17.058;2023-02-26T04:54:42;4.27;;;2.70;;
23270;SDS011;11804;51.118;17.058;2023-02-26T04:57:10;4.83;;;3.10;;
23270;SDS011;11804;51.118;17.058;2023-02-26T04:59:38;5.03;;;2.80;;
23270;SDS011;11804;51.118;17.058;2023-02-26T05:02:05;4.57;;;2.70;;
23270;SDS011;11804;51.118;17.058;2023-02-26T05:04:33;3.50;;;2.67;;
23270;SDS011;11804;51.118;17.058;2023-02-26T05:07:01;4.70;;;2.97;;
23270;SDS011;11804;51.118;17.058;2023-02-26T05:09:28;4.47;;;2.57;;
23270;SDS011;11804;51.118;17.058;2023-02-26T05:11:58;3.37;;;2.57;;
23270;SDS011;11804;51.118;17.058;2023-02-26T05:14:25;3.40;;;2.67;;
23270;SDS011;11804;51.118;17.058;2023-02-26T05:16:53;4.67;;;2.53;;
23270;SDS011;11804;51.118;17.058;2023-02-26T05:19:20;2.97;;;2.20;;
23270;SDS011;11804;51.118;17.058;2023-02-26T05:21:48;3.93;;;2.50;;
23270;SDS011;11804;51.118;17.058;2023-02-26T05:24:16;5.03;;;2.50;;
23270;SDS011;11804;51.118;17.058;2023-02-26T05:26:44;4.63;;;2.60;;
23270;SDS011;11804;51.118;17.058;2023-02-26T05:29:11;4.13;;;2.80;;
23270;SDS011;11804;51.118;17.058;2023-02-26T05:31:39;4.70;;;3.00;;
23270;SDS011;11804;51.118;17.058;2023-02-26T05:34:07;4.60;;;2.73;;
23270;SDS011;11804;51.118;17.058;2023-02-26T05:36:35;4.20;;;2.40;;
23270;SDS011;11804;51.118;17.058;2023-02-26T05:39:02;4.83;;;2.50;;
23270;SDS011;11804;51.118;17.058;2023-02-26T05:41:30;3.10;;;2.10;;
23270;SDS011;11804;51.118;17.058;2023-02-26T05:43:58;2.77;;;2.07;;
23270;SDS011;11804;51.118;17.058;2023-02-26T05:46:27;3.87;;;2.60;;
23270;SDS011;11804;51.118;17.058;2023-02-26T05:48:54;3.37;;;2.60;;
23270;SDS011;11804;51.118;17.058;2023-02-26T05:51:22;4.33;;;2.47;;
23270;SDS011;11804;51.118;17.058;2023-02-26T05:53:50;4.40;;;2.50;;
23270;SDS011;11804;51.118;17.058;2023-02-26T05:56:19;4.13;;;2.67;;
23270;SDS011;11804;51.118;17.058;2023-02-26T05:58:46;3.80;;;2.43;;
23270;SDS011;11804;51.118;17.058;2023-02-26T06:01:14;3.17;;;2.67;;
23270;SDS011;11804;51.118;17.058;2023-02-26T06:03:42;5.27;;;2.70;;
23270;SDS011;11804;51.118;17.058;2023-02-26T06:06:10;5.77;;;2.90;;
23270;SDS011;11804;51.118;17.058;2023-02-26T06:08:41;4.90;;;2.90;;
23270;SDS011;11804;51.118;17.058;2023-02-26T06:11:08;5.27;;;2.50;;
23270;SDS011;11804;51.118;17.058;2023-02-26T06:13:36;3.53;;;2.33;;
23270;SDS011;11804;51.118;17.058;2023-02-26T06:16:04;3.70;;;2.53;;
23270;SDS011;11804;51.118;17.058;2023-02-26T06:18:32;5.60;;;2.43;;
23270;SDS011;11804;51.118;17.058;2023-02-26T06:21:00;4.63;;;2.53;;
23270;SDS011;11804;51.118;17.058;2023-02-26T06:23:27;21.73;;;8.17;;
23270;SDS011;11804;51.118;17.058;2023-02-26T06:25:55;5.57;;;3.13;;
23270;SDS011;11804;51.118;17.058;2023-02-26T06:28:24;4.10;;;2.70;;
23270;SDS011;11804;51.118;17.058;2023-02-26T06:30:52;17.43;;;8.90;;
23270;SDS011;11804;51.118;17.058;2023-02-26T06:33:20;4.40;;;3.07;;
23270;SDS011;11804;51.118;17.058;2023-02-26T06:35:49;3.00;;;2.33;;
23270;SDS011;11804;51.118;17.058;2023-02-26T06:38:18;5.73;;;3.40;;
23270;SDS011;11804;51.118;17.058;2023-02-26T06:40:46;11.33;;;6.70;;
23270;SDS011;11804;51.118;17.058;2023-02-26T06:43:14;9.57;;;5.93;;
23270;SDS011;11804;51.118;17.058;2023-02-26T06:45:41;12.87;;;7.40;;
23270;SDS011;11804;51.118;17.058;2023-02-26T06:48:09;9.23;;;6.03;;
23270;SDS011;11804;51.118;17.058;2023-02-26T06:50:37;5.83;;;3.47;;
23270;SDS011;11804;51.118;17.058;2023-02-26T06:53:05;3.33;;;2.53;;
23270;SDS011;11804;51.118;17.058;2023-02-26T06:55:33;8.23;;;5.47;;
23270;SDS011;11804;51.118;17.058;2023-02-26T06:58:00;14.83;;;7.33;;
23270;SDS011;11804;51.118;17.058;2023-02-26T07:00:28;19.73;;;12.20;;
23270;SDS011;11804;51.118;17.058;2023-02-26T07:02:56;15.80;;;11.90;;
23270;SDS011;11804;51.118;17.058;2023-02-26T07:05:23;10.70;;;7.40;;
23270;SDS011;11804;51.118;17.058;2023-02-26T07:07:51;5.17;;;4.03;;
23270;SDS011;11804;51.118;17.058;2023-02-26T07:10:18;5.13;;;3.37;;
23270;SDS011;11804;51.118;17.058;2023-02-26T07:12:50;34.37;;;15.50;;
23270;SDS011;11804;51.118;17.058;2023-02-26T07:15:17;53.40;;;25.67;;
23270;SDS011;11804;51.118;17.058;2023-02-26T07:17:45;11.80;;;7.43;;
23270;SDS011;11804;51.118;17.058;2023-02-26T07:20:13;24.17;;;15.17;;
23270;SDS011;11804;51.118;17.058;2023-02-26T07:22:41;16.10;;;10.13;;
23270;SDS011;11804;51.118;17.058;2023-02-26T07:25:08;28.60;;;17.17;;
23270;SDS011;11804;51.118;17.058;2023-02-26T07:27:37;18.57;;;11.53;;
23270;SDS011;11804;51.118;17.058;2023-02-26T07:30:05;12.43;;;7.10;;
23270;SDS011;11804;51.118;17.058;2023-02-26T07:32:34;8.07;;;5.67;;
23270;SDS011;11804;51.118;17.058;2023-02-26T07:35:04;8.47;;;5.23;;
23270;SDS011;11804;51.118;17.058;2023-02-26T07:37:35;5.40;;;3.50;;
23270;SDS011;11804;51.118;17.058;2023-02-26T07:40:06;7.27;;;4.90;;
23270;SDS011;11804;51.118;17.058;2023-02-26T07:42:34;8.80;;;5.63;;
23270;SDS011;11804;51.118;17.058;2023-02-26T07:45:02;7.00;;;5.07;;
23270;SDS011;11804;51.118;17.058;2023-02-26T07:47:31;5.60;;;3.90;;
23270;SDS011;11804;51.118;17.058;2023-02-26T07:49:59;7.77;;;4.67;;
23270;SDS011;11804;51.118;17.058;2023-02-26T07:52:26;5.97;;;3.50;;
23270;SDS011;11804;51.118;17.058;2023-02-26T07:54:54;6.80;;;3.07;;
23270;SDS011;11804;51.118;17.058;2023-02-26T07:57:22;6.00;;;4.10;;
23270;SDS011;11804;51.118;17.058;2023-02-26T07:59:49;8.37;;;4.63;;
23270;SDS011;11804;51.118;17.058;2023-02-26T08:02:17;4.33;;;3.10;;
23270;SDS011;11804;51.118;17.058;2023-02-26T08:04:44;4.00;;;3.20;;
23270;SDS011;11804;51.118;17.058;2023-02-26T08:07:12;4.47;;;3.20;;
23270;SDS011;11804;51.118;17.058;2023-02-26T08:09:40;5.53;;;3.20;;
23270;SDS011;11804;51.118;17.058;2023-02-26T08:12:08;4.20;;;2.90;;
23270;SDS011;11804;51.118;17.058;2023-02-26T08:14:37;4.97;;;2.83;;
23270;SDS011;11804;51.118;17.058;2023-02-26T08:17:07;3.83;;;2.60;;
23270;SDS011;11804;51.118;17.058;2023-02-26T08:19:36;5.27;;;3.70;;
23270;SDS011;11804;51.118;17.058;2023-02-26T08:22:03;4.73;;;2.80;;
23270;SDS011;11804;51.118;17.058;2023-02-26T08:24:31;5.57;;;2.80;;
23270;SDS011;11804;51.118;17.058;2023-02-26T08:26:59;3.73;;;2.77;;
23270;SDS011;11804;51.118;17.058;2023-02-26T08:29:27;4.10;;;2.70;;
23270;SDS011;11804;51.118;17.058;2023-02-26T08:31:54;3.93;;;2.47;;
23270;SDS011;11804;51.118;17.058;2023-02-26T08:34:22;5.33;;;2.90;;
23270;SDS011;11804;51.118;17.058;2023-02-26T08:36:50;3.87;;;2.73;;
23270;SDS011;11804;51.118;17.058;2023-02-26T08:39:17;4.20;;;2.57;;
23270;SDS011;11804;51.118;17.058;2023-02-26T08:41:45;6.80;;;3.77;;
23270;SDS011;11804;51.118;17.058;2023-02-26T08:44:13;4.33;;;3.20;;
23270;SDS011;11804;51.118;17.058;2023-02-26T08:46:40;4.20;;;2.83;;
23270;SDS011;11804;51.118;17.058;2023-02-26T08:49:09;5.33;;;3.90;;
23270;SDS011;11804;51.118;17.058;2023-02-26T08:51:37;7.17;;;4.87;;
23270;SDS011;11804;51.118;17.058;2023-02-26T08:54:05;7.43;;;4.27;;
23270;SDS011;11804;51.118;17.058;2023-02-26T08:56:33;8.33;;;5.47;;
23270;SDS011;11804;51.118;17.058;2023-02-26T08:59:01;6.60;;;3.90;;
23270;SDS011;11804;51.118;17.058;2023-02-26T09:01:29;6.50;;;4.10;;
23270;SDS011;11804;51.118;17.058;2023-02-26T09:03:56;7.43;;;3.60;;
23270;SDS011;11804;51.118;17.058;2023-02-26T09:06:24;7.57;;;3.77;;
23270;SDS011;11804;51.118;17.058;2023-02-26T09:08:51;5.90;;;3.47;;
23270;SDS011;11804;51.118;17.058;2023-02-26T09:11:19;5.00;;;3.80;;
23270;SDS011;11804;51.118;17.058;2023-02-26T09:13:46;5.77;;;3.40;;
23270;SDS011;11804;51.118;17.058;2023-02-26T09:16:14;5.00;;;3.27;;
23270;SDS011;11804;51.118;17.058;2023-02-26T09:18:42;6.30;;;3.17;;
23270;SDS011;11804;51.118;17.058;2023-02-26T09:21:10;6.67;;;4.30;;
23270;SDS011;11804;51.118;17.058;2023-02-26T09:23:38;6.33;;;3.80;;
23270;SDS011;11804;51.118;17.058;2023-02-26T09:26:05;5.53;;;3.20;;
23270;SDS011;11804;51.118;17.058;2023-02-26T09:28:33;5.67;;;3.13;;
23270;SDS011;11804;51.118;17.058;2023-02-26T09:31:01;4.67;;;3.17;;
23270;SDS011;11804;51.118;17.058;2023-02-26T09:33:29;5.63;;;3.23;;
23270;SDS011;11804;51.118;17.058;2023-02-26T09:35:57;5.73;;;3.23;;
23270;SDS011;11804;51.118;17.058;2023-02-26T09:38:24;5.97;;;3.30;;
23270;SDS011;11804;51.118;17.058;2023-02-26T09:40:53;5.97;;;3.27;;
23270;SDS011;11804;51.118;17.058;2023-02-26T09:43:48;7.73;;;5.07;;
23270;SDS011;11804;51.118;17.058;2023-02-26T09:49:28;7.37;;;3.27;;
23270;SDS011;11804;51.118;17.058;2023-02-26T09:54:56;12.20;;;8.33;;
23270;SDS011;11804;51.118;17.058;2023-02-26T09:57:28;8.53;;;5.73;;
23270;SDS011;11804;51.118;17.058;2023-02-26T09:59:57;10.73;;;6.57;;
23270;SDS011;11804;51.118;17.058;2023-02-26T10:05:16;12.43;;;6.90;;
23270;SDS011;11804;51.118;17.058;2023-02-26T10:07:51;8.30;;;5.60;;
23270;SDS011;11804;51.118;17.058;2023-02-26T10:16:14;9.80;;;5.30;;
23270;SDS011;11804;51.118;17.058;2023-02-26T10:18:42;9.17;;;5.00;;
23270;SDS011;11804;51.118;17.058;2023-02-26T10:21:14;14.30;;;8.40;;
23270;SDS011;11804;51.118;17.058;2023-02-26T10:23:54;12.70;;;10.00;;
23270;SDS011;11804;51.118;17.058;2023-02-26T10:32:00;26.73;;;13.97;;
23270;SDS011;11804;51.118;17.058;2023-02-26T10:34:48;11.37;;;6.57;;
23270;SDS011;11804;51.118;17.058;2023-02-26T10:43:03;8.17;;;4.40;;
23270;SDS011;11804;51.118;17.058;2023-02-26T10:45:54;5.10;;;3.60;;
23270;SDS011;11804;51.118;17.058;2023-02-26T10:51:10;7.53;;;4.07;;
23270;SDS011;11804;51.118;17.058;2023-02-26T10:53:47;6.73;;;3.93;;
23270;SDS011;11804;51.118;17.058;2023-02-26T10:56:16;16.57;;;8.27;;
23270;SDS011;11804;51.118;17.058;2023-02-26T10:58:45;30.57;;;15.57;;
23270;SDS011;11804;51.118;17.058;2023-02-26T11:01:18;14.40;;;8.10;;
23270;SDS011;11804;51.118;17.058;2023-02-26T11:03:44;6.90;;;4.83;;
23270;SDS011;11804;51.118;17.058;2023-02-26T11:06:29;15.60;;;7.87;;
23270;SDS011;11804;51.118;17.058;2023-02-26T11:09:42;7.87;;;5.33;;
23270;SDS011;11804;51.118;17.058;2023-02-26T11:14:39;18.60;;;11.40;;
23270;SDS011;11804;51.118;17.058;2023-02-26T11:17:27;8.43;;;5.57;;
23270;SDS011;11804;51.118;17.058;2023-02-26T11:19:58;7.73;;;4.97;;
23270;SDS011;11804;51.118;17.058;2023-02-26T11:22:32;8.70;;;4.33;;
23270;SDS011;11804;51.118;17.058;2023-02-26T11:25:02;7.17;;;3.40;;
23270;SDS011;11804;51.118;17.058;2023-02-26T11:27:34;5.47;;;2.97;;
23270;SDS011;11804;51.118;17.058;2023-02-26T11:30:15;7.70;;;4.30;;
23270;SDS011;11804;51.118;17.058;2023-02-26T11:32:45;5.40;;;3.53;;
23270;SDS011;11804;51.118;17.058;2023-02-26T11:35:16;7.03;;;4.30;;
23270;SDS011;11804;51.118;17.058;2023-02-26T11:37:46;9.87;;;5.57;;
23270;SDS011;11804;51.118;17.058;2023-02-26T11:40:17;14.63;;;8.23;;
23270;SDS011;11804;51.118;17.058;2023-02-26T11:42:52;35.77;;;15.47;;
23270;SDS011;11804;51.118;17.058;2023-02-26T11:45:20;17.70;;;9.07;;
23270;SDS011;11804;51.118;17.058;2023-02-26T11:47:51;15.53;;;9.00;;
23270;SDS011;11804;51.118;17.058;2023-02-26T11:50:28;9.70;;;5.47;;
23270;SDS011;11804;51.118;17.058;2023-02-26T11:53:05;14.10;;;7.37;;
23270;SDS011;11804;51.118;17.058;2023-02-26T11:55:42;6.00;;;4.03;;
23270;SDS011;11804;51.118;17.058;2023-02-26T11:58:17;8.97;;;5.07;;
23270;SDS011;11804;51.118;17.058;2023-02-26T12:00:47;8.17;;;4.60;;
23270;SDS011;11804;51.118;17.058;2023-02-26T12:03:20;9.37;;;4.40;;
23270;SDS011;11804;51.118;17.058;2023-02-26T12:05:49;7.23;;;4.70;;
23270;SDS011;11804;51.118;17.058;2023-02-26T12:19:46;32.83;;;15.17;;
23270;SDS011;11804;51.118;17.058;2023-02-26T12:31:05;8.77;;;5.63;;
23270;SDS011;11804;51.118;17.058;2023-02-26T12:34:05;25.73;;;12.93;;
23270;SDS011;11804;51.118;17.058;2023-02-26T12:37:02;12.03;;;6.90;;
23270;SDS011;11804;51.118;17.058;2023-02-26T12:53:04;10.37;;;5.30;;
23270;SDS011;11804;51.118;17.058;2023-02-26T13:01:37;9.57;;;5.73;;
23270;SDS011;11804;51.118;17.058;2023-02-26T13:04:15;10.73;;;6.70;;
23270;SDS011;11804;51.118;17.058;2023-02-26T13:17:47;11.03;;;7.57;;
23270;SDS011;11804;51.118;17.058;2023-02-26T13:20:24;13.80;;;7.10;;
23270;SDS011;11804;51.118;17.058;2023-02-26T13:22:56;15.90;;;7.83;;
23270;SDS011;11804;51.118;17.058;2023-02-26T13:30:53;5.90;;;2.57;;
23270;SDS011;11804;51.118;17.058;2023-02-26T13:33:28;3.60;;;2.30;;
23270;SDS011;11804;51.118;17.058;2023-02-26T13:35:59;5.60;;;3.00;;
23270;SDS011;11804;51.118;17.058;2023-02-26T13:50:04;3.97;;;2.10;;
23270;SDS011;11804;51.118;17.058;2023-02-26T13:52:48;1.83;;;1.40;;
23270;SDS011;11804;51.118;17.058;2023-02-26T13:55:33;4.07;;;1.80;;
23270;SDS011;11804;51.118;17.058;2023-02-26T13:57:43;2.67;;;2.13;;
23270;SDS011;11804;51.118;17.058;2023-02-26T14:00:24;5.27;;;2.27;;
23270;SDS011;11804;51.118;17.058;2023-02-26T14:03:09;2.47;;;1.40;;
23270;SDS011;11804;51.118;17.058;2023-02-26T14:08:26;4.23;;;2.30;;
23270;SDS011;11804;51.118;17.058;2023-02-26T14:11:23;24.50;;;10.40;;
23270;SDS011;11804;51.118;17.058;2023-02-26T14:16:32;14.97;;;6.80;;
23270;SDS011;11804;51.118;17.058;2023-02-26T14:19:04;7.80;;;3.57;;
23270;SDS011;11804;51.118;17.058;2023-02-26T14:21:53;8.43;;;4.70;;
23270;SDS011;11804;51.118;17.058;2023-02-26T14:24:43;9.67;;;5.40;;
23270;SDS011;11804;51.118;17.058;2023-02-26T14:29:43;11.10;;;6.73;;
23270;SDS011;11804;51.118;17.058;2023-02-26T14:32:30;11.97;;;6.10;;
23270;SDS011;11804;51.118;17.058;2023-02-26T14:35:10;32.77;;;15.03;;
23270;SDS011;11804;51.118;17.058;2023-02-26T14:37:40;20.07;;;9.27;;
23270;SDS011;11804;51.118;17.058;2023-02-26T14:45:23;6.90;;;4.17;;
23270;SDS011;11804;51.118;17.058;2023-02-26T14:48:12;7.10;;;3.57;;
23270;SDS011;11804;51.118;17.058;2023-02-26T14:50:50;8.33;;;3.83;;
23270;SDS011;11804;51.118;17.058;2023-02-26T14:56:08;6.33;;;3.90;;
23270;SDS011;11804;51.118;17.058;2023-02-26T15:01:36;6.83;;;3.83;;
23270;SDS011;11804;51.118;17.058;2023-02-26T15:12:57;7.67;;;4.30;;
23270;SDS011;11804;51.118;17.058;2023-02-26T15:18:04;12.97;;;4.80;;
23270;SDS011;11804;51.118;17.058;2023-02-26T15:23:40;6.33;;;4.23;;
23270;SDS011;11804;51.118;17.058;2023-02-26T15:26:28;11.73;;;6.13;;
23270;SDS011;11804;51.118;17.058;2023-02-26T15:28:58;11.33;;;6.10;;
23270;SDS011;11804;51.118;17.058;2023-02-26T15:31:33;14.90;;;6.67;;
23270;SDS011;11804;51.118;17.058;2023-02-26T15:34:01;8.30;;;4.70;;
23270;SDS011;11804;51.118;17.058;2023-02-26T15:36:29;9.87;;;4.77;;
23270;SDS011;11804;51.118;17.058;2023-02-26T15:38:59;7.57;;;4.37;;
23270;SDS011;11804;51.118;17.058;2023-02-26T15:41:29;10.50;;;3.70;;
23270;SDS011;11804;51.118;17.058;2023-02-26T15:44:02;8.90;;;4.23;;
23270;SDS011;11804;51.118;17.058;2023-02-26T15:46:33;7.57;;;3.77;;
23270;SDS011;11804;51.118;17.058;2023-02-26T15:49:08;8.97;;;5.23;;
23270;SDS011;11804;51.118;17.058;2023-02-26T15:51:38;6.70;;;4.10;;
23270;SDS011;11804;51.118;17.058;2023-02-26T15:54:08;6.20;;;3.70;;
23270;SDS011;11804;51.118;17.058;2023-02-26T15:56:38;11.47;;;4.90;;
23270;SDS011;11804;51.118;17.058;2023-02-26T15:59:07;12.33;;;5.67;;
23270;SDS011;11804;51.118;17.058;2023-02-26T16:01:47;22.93;;;8.93;;
23270;SDS011;11804;51.118;17.058;2023-02-26T16:04:16;13.23;;;7.03;;
23270;SDS011;11804;51.118;17.058;2023-02-26T16:06:47;14.43;;;8.80;;
23270;SDS011;11804;51.118;17.058;2023-02-26T16:09:18;12.50;;;7.50;;
23270;SDS011;11804;51.118;17.058;2023-02-26T16:11:59;12.93;;;7.47;;
23270;SDS011;11804;51.118;17.058;2023-02-26T16:14:36;12.67;;;6.80;;
23270;SDS011;11804;51.118;17.058;2023-02-26T16:17:05;17.23;;;9.87;;
23270;SDS011;11804;51.118;17.058;2023-02-26T16:19:37;19.47;;;13.23;;
23270;SDS011;11804;51.118;17.058;2023-02-26T16:24:45;9.97;;;6.30;;
23270;SDS011;11804;51.118;17.058;2023-02-26T16:27:16;11.67;;;6.70;;
23270;SDS011;11804;51.118;17.058;2023-02-26T16:29:49;14.10;;;5.60;;
23270;SDS011;11804;51.118;17.058;2023-02-26T16:32:14;12.57;;;6.10;;
23270;SDS011;11804;51.118;17.058;2023-02-26T16:34:48;11.27;;;6.90;;
23270;SDS011;11804;51.118;17.058;2023-02-26T16:39:57;13.50;;;6.77;;
23270;SDS011;11804;51.118;17.058;2023-02-26T16:42:35;14.07;;;6.23;;
23270;SDS011;11804;51.118;17.058;2023-02-26T16:45:16;25.33;;;9.53;;
23270;SDS011;11804;51.118;17.058;2023-02-26T16:47:47;18.30;;;8.37;;
23270;SDS011;11804;51.118;17.058;2023-02-26T16:50:17;13.73;;;7.77;;
23270;SDS011;11804;51.118;17.058;2023-02-26T16:52:51;14.03;;;7.50;;
23270;SDS011;11804;51.118;17.058;2023-02-26T16:55:17;15.43;;;8.03;;
23270;SDS011;11804;51.118;17.058;2023-02-26T16:57:45;20.37;;;9.37;;
23270;SDS011;11804;51.118;17.058;2023-02-26T17:00:15;15.73;;;7.97;;
23270;SDS011;11804;51.118;17.058;2023-02-26T17:02:46;14.40;;;7.77;;
23270;SDS011;11804;51.118;17.058;2023-02-26T17:05:22;18.43;;;8.47;;
23270;SDS011;11804;51.118;17.058;2023-02-26T17:07:54;14.33;;;7.80;;
23270;SDS011;11804;51.118;17.058;2023-02-26T17:16:05;22.37;;;9.23;;
23270;SDS011;11804;51.118;17.058;2023-02-26T17:18:37;17.33;;;8.77;;
23270;SDS011;11804;51.118;17.058;2023-02-26T17:21:05;18.70;;;8.70;;
23270;SDS011;11804;51.118;17.058;2023-02-26T17:23:36;23.27;;;10.60;;
23270;SDS011;11804;51.118;17.058;2023-02-26T17:26:04;22.83;;;10.30;;
23270;SDS011;11804;51.118;17.058;2023-02-26T17:28:33;18.87;;;9.53;;
23270;SDS011;11804;51.118;17.058;2023-02-26T17:31:04;17.27;;;9.00;;
23270;SDS011;11804;51.118;17.058;2023-02-26T17:33:32;15.53;;;8.70;;
23270;SDS011;11804;51.118;17.058;2023-02-26T17:36:02;19.43;;;9.77;;
23270;SDS011;11804;51.118;17.058;2023-02-26T17:38:36;19.33;;;10.67;;
23270;SDS011;11804;51.118;17.058;2023-02-26T17:41:00;24.57;;;11.87;;
23270;SDS011;11804;51.118;17.058;2023-02-26T17:43:27;25.53;;;13.27;;
23270;SDS011;11804;51.118;17.058;2023-02-26T17:45:55;22.47;;;12.40;;
23270;SDS011;11804;51.118;17.058;2023-02-26T17:48:23;27.10;;;13.43;;
23270;SDS011;11804;51.118;17.058;2023-02-26T17:50:52;26.03;;;13.27;;
23270;SDS011;11804;51.118;17.058;2023-02-26T17:53:22;24.73;;;13.77;;
23270;SDS011;11804;51.118;17.058;2023-02-26T17:55:55;27.03;;;13.93;;
23270;SDS011;11804;51.118;17.058;2023-02-26T17:58:27;28.77;;;14.83;;